createdAt,value
2023-03-11T00:00:20.097Z,1005.4
2023-03-11T00:05:20.174Z,1005.6
2023-03-11T00:10:20.093Z,1005.7
2023-03-11T00:15:20.103Z,1005.9
2023-03-11T00:20:20.124Z,1005.8
2023-03-11T00:25:20.102Z,1006
2023-03-11T00:30:20.101Z,1006.2
2023-03-11T00:35:20.098Z,1006.3
2023-03-11T00:40:20.100Z,1006.2
2023-03-11T00:45:20.106Z,1006.2
2023-03-11T00:50:20.106Z,1006.4
2023-03-11T00:55:20.359Z,1006.3
2023-03-11T01:00:20.094Z,1006.3
2023-03-11T01:05:20.100Z,1006.5
2023-03-11T01:10:20.120Z,1006.7
2023-03-11T01:15:20.103Z,1006.7
2023-03-11T01:20:20.096Z,1006.7
2023-03-11T01:25:20.111Z,1006.8
2023-03-11T01:30:20.099Z,1006.8
2023-03-11T01:35:20.106Z,1006.8
2023-03-11T01:40:20.103Z,1007
2023-03-11T01:45:20.094Z,1007.1
2023-03-11T01:50:20.097Z,1007.1
2023-03-11T01:55:20.103Z,1007.2
2023-03-11T02:00:20.102Z,1007.1
2023-03-11T02:05:20.091Z,1007.1
2023-03-11T02:10:20.112Z,1007.1
2023-03-11T02:15:20.091Z,1007
2023-03-11T02:20:20.102Z,1007.1
2023-03-11T02:25:20.095Z,1007.2
2023-03-11T02:30:20.105Z,1007.1
2023-03-11T02:35:20.104Z,1007.3
2023-03-11T02:40:20.113Z,1007.4
2023-03-11T02:45:20.096Z,1007.5
2023-03-11T02:50:20.122Z,1007.4
2023-03-11T02:55:20.111Z,1007.6
2023-03-11T03:00:20.130Z,1007.7
2023-03-11T03:05:20.100Z,1007.7
2023-03-11T03:10:20.093Z,1007.6
2023-03-11T03:15:20.100Z,1007.7
2023-03-11T03:20:20.102Z,1007.7
2023-03-11T03:25:20.086Z,1007.9
2023-03-11T03:30:20.104Z,1008
2023-03-11T03:35:20.127Z,1008
2023-03-11T03:40:20.103Z,1008.1
2023-03-11T03:45:20.111Z,1008.2
2023-03-11T03:50:20.088Z,1008.4
2023-03-11T03:55:20.102Z,1008.4
2023-03-11T04:00:20.225Z,1008.4
2023-03-11T04:05:20.105Z,1008.6
2023-03-11T04:10:20.112Z,1008.8
2023-03-11T04:15:20.106Z,1008.9
2023-03-11T04:20:20.112Z,1008.8
2023-03-11T04:25:20.106Z,1008.9
2023-03-11T04:30:20.111Z,1009
2023-03-11T04:35:20.090Z,1009
2023-03-11T04:40:20.113Z,1009
2023-03-11T04:45:20.084Z,1009
2023-03-11T04:50:20.093Z,1009
2023-03-11T04:55:20.100Z,1009
2023-03-11T05:00:20.085Z,1009.1
2023-03-11T05:05:20.098Z,1009.1
2023-03-11T05:10:20.086Z,1009.2
2023-03-11T05:15:20.113Z,1009.3
2023-03-11T05:20:20.106Z,1009.4
2023-03-11T05:25:20.095Z,1009.5
2023-03-11T05:30:20.092Z,1009.6
2023-03-11T05:35:20.128Z,1009.6
2023-03-11T05:40:20.112Z,1009.7
2023-03-11T05:45:20.094Z,1009.8
2023-03-11T05:50:20.102Z,1009.9
2023-03-11T05:55:20.101Z,1009.9
2023-03-11T06:00:20.097Z,1009.9
2023-03-11T06:05:20.155Z,1009.9
2023-03-11T06:10:20.088Z,1010.1
2023-03-11T06:15:20.085Z,1010.1
2023-03-11T06:20:20.099Z,1010.2
2023-03-11T06:25:20.100Z,1010.2
2023-03-11T06:30:20.089Z,1010.3
2023-03-11T06:35:20.078Z,1010.3
2023-03-11T06:40:20.093Z,1010.4
2023-03-11T06:45:20.756Z,1010.5
2023-03-11T06:50:20.091Z,1010.6
2023-03-11T06:55:20.086Z,1010.7
2023-03-11T07:00:20.090Z,1010.6
2023-03-11T07:05:20.097Z,1010.8
2023-03-11T07:10:20.296Z,1010.7
2023-03-11T07:15:20.243Z,1010.9
2023-03-11T07:20:20.279Z,1010.8
2023-03-11T07:25:20.088Z,1011
2023-03-11T07:30:20.607Z,1010.9
2023-03-11T07:35:20.085Z,1011.1
2023-03-11T07:40:20.097Z,1011.2
2023-03-11T07:45:20.238Z,1011.2
2023-03-11T07:50:20.098Z,1011.4
2023-03-11T07:55:20.098Z,1011.5
2023-03-11T08:00:20.108Z,1011.5
2023-03-11T08:05:20.096Z,1011.5
2023-03-11T08:10:20.111Z,1011.6
2023-03-11T08:15:20.092Z,1011.7
2023-03-11T08:20:20.092Z,1011.7
2023-03-11T08:25:20.114Z,1011.8
2023-03-11T08:30:20.107Z,1011.8
2023-03-11T08:35:20.105Z,1011.8
2023-03-11T08:40:20.101Z,1011.9
2023-03-11T08:45:20.104Z,1012
2023-03-11T08:50:20.101Z,1011.9
2023-03-11T08:55:20.093Z,1012.1
2023-03-11T09:00:20.104Z,1012.1
2023-03-11T09:05:20.085Z,1012.1
2023-03-11T09:10:20.106Z,1012.2
2023-03-11T09:15:20.096Z,1012.4
2023-03-11T09:20:20.101Z,1012.4
2023-03-11T09:25:20.098Z,1012.5
2023-03-11T09:30:20.103Z,1012.5
2023-03-11T09:35:20.099Z,1012.5
2023-03-11T09:40:20.127Z,1012.7
2023-03-11T09:45:20.096Z,1012.7
2023-03-11T09:50:20.109Z,1012.7
2023-03-11T09:55:20.104Z,1012.8
2023-03-11T10:00:20.106Z,1012.8
2023-03-11T10:05:20.092Z,1012.9
2023-03-11T10:10:20.103Z,1012.8
2023-03-11T10:15:20.086Z,1012.9
2023-03-11T10:20:20.098Z,1012.9
2023-03-11T10:25:20.092Z,1012.9
2023-03-11T10:30:20.118Z,1012.8
2023-03-11T10:35:20.103Z,1012.8
2023-03-11T10:40:21.514Z,1012.7
2023-03-11T10:45:20.098Z,1012.9
2023-03-11T10:50:20.202Z,1012.9
2023-03-11T10:55:20.111Z,1013
2023-03-11T11:00:20.101Z,1013.1
2023-03-11T11:05:20.140Z,1013.1
2023-03-11T11:10:20.125Z,1013.1
2023-03-11T11:15:20.099Z,1013.2
2023-03-11T11:20:20.103Z,1013.1
2023-03-11T11:25:20.240Z,1013.1
2023-03-11T11:30:20.100Z,1013.2
2023-03-11T11:35:20.163Z,1013.1
2023-03-11T11:40:20.100Z,1013.1
2023-03-11T11:45:20.104Z,1013
2023-03-11T11:50:20.102Z,1013.1
2023-03-11T11:55:20.099Z,1013.1
2023-03-11T12:00:20.111Z,1013.1
2023-03-11T12:05:20.179Z,1013.1
2023-03-11T12:10:23.519Z,1013.2
2023-03-11T12:15:20.093Z,1013.1
2023-03-11T12:20:20.109Z,1013.3
2023-03-11T12:25:20.089Z,1013.2
2023-03-11T12:30:20.094Z,1013.2
2023-03-11T12:35:20.097Z,1013.1
2023-03-11T12:40:20.100Z,1013.1
2023-03-11T12:45:20.092Z,1013.2
2023-03-11T12:50:20.101Z,1013.2
2023-03-11T12:55:20.094Z,1013.3
2023-03-11T13:00:20.118Z,1013.3
2023-03-11T13:05:20.097Z,1013.2
2023-03-11T13:10:20.102Z,1013.1
2023-03-11T13:15:20.093Z,1013.3
2023-03-11T13:20:20.111Z,1013.3
2023-03-11T13:25:20.093Z,1013.3
2023-03-11T13:30:20.105Z,1013.4
2023-03-11T13:35:20.114Z,1013.4
2023-03-11T13:40:20.110Z,1013.4
2023-03-11T13:45:20.099Z,1013.4
2023-03-11T13:50:20.104Z,1013.4
2023-03-11T13:55:20.100Z,1013.4
2023-03-11T14:00:20.109Z,1013.6
2023-03-11T14:05:20.093Z,1013.6
2023-03-11T14:10:20.132Z,1013.6
2023-03-11T14:15:20.127Z,1013.7
2023-03-11T14:20:20.170Z,1013.7
2023-03-11T14:25:20.099Z,1013.6
2023-03-11T14:30:20.097Z,1013.7
2023-03-11T14:35:20.103Z,1013.9
2023-03-11T14:40:20.100Z,1014
2023-03-11T14:45:20.096Z,1013.9
2023-03-11T14:50:20.106Z,1014
2023-03-11T14:55:20.087Z,1013.9
2023-03-11T15:00:20.095Z,1013.8
2023-03-11T15:05:20.092Z,1013.9
2023-03-11T15:10:20.091Z,1013.9
2023-03-11T15:15:20.091Z,1013.8
2023-03-11T15:20:20.098Z,1014
2023-03-11T15:25:20.100Z,1014
2023-03-11T15:30:20.099Z,1013.9
2023-03-11T15:35:20.107Z,1013.9
2023-03-11T15:40:20.095Z,1013.9
2023-03-11T15:45:20.099Z,1013.9
2023-03-11T15:50:24.401Z,1013.8
2023-03-11T15:55:20.099Z,1013.8
2023-03-11T16:00:20.105Z,1013.8
2023-03-11T16:05:20.092Z,1014
2023-03-11T16:10:20.107Z,1014.1
2023-03-11T16:15:20.099Z,1013.9
2023-03-11T16:20:20.092Z,1014
2023-03-11T16:25:20.094Z,1014.2
2023-03-11T16:30:20.097Z,1014.1
2023-03-11T16:35:20.094Z,1014.3
2023-03-11T16:40:20.104Z,1014.5
2023-03-11T16:45:20.090Z,1014.5
2023-03-11T16:50:20.094Z,1014.6
2023-03-11T16:55:20.111Z,1014.7
2023-03-11T17:00:20.102Z,1014.6
2023-03-11T17:05:20.193Z,1014.6
2023-03-11T17:10:20.111Z,1014.7
2023-03-11T17:15:20.116Z,1014.7
2023-03-11T17:20:21.665Z,1014.7
2023-03-11T17:25:20.088Z,1014.7
2023-03-11T17:30:34.245Z,1014.6
2023-03-11T17:35:20.095Z,1014.8
2023-03-11T17:40:20.099Z,1015
2023-03-11T17:45:20.102Z,1015.1
2023-03-11T17:50:20.102Z,1015.1
2023-03-11T17:55:20.101Z,1015.1
2023-03-11T18:00:20.098Z,1015.1
2023-03-11T18:05:20.100Z,1015.3
2023-03-11T18:10:20.085Z,1015.3
2023-03-11T18:15:20.088Z,1015.4
2023-03-11T18:20:20.111Z,1015.4
2023-03-11T18:25:20.103Z,1015.4
2023-03-11T18:30:20.088Z,1015.5
2023-03-11T18:35:20.110Z,1015.6
2023-03-11T18:40:20.096Z,1015.5
2023-03-11T18:45:20.096Z,1015.7
2023-03-11T18:50:20.119Z,1015.5
2023-03-11T18:55:20.103Z,1015.6
2023-03-11T19:00:20.094Z,1015.6
2023-03-11T19:05:20.173Z,1015.7
2023-03-11T19:10:20.108Z,1015.7
2023-03-11T19:15:20.087Z,1015.7
2023-03-11T19:20:20.095Z,1015.7
2023-03-11T19:25:20.103Z,1015.7
2023-03-11T19:30:20.102Z,1015.9
2023-03-11T19:35:20.129Z,1016
2023-03-11T19:40:20.103Z,1015.8
2023-03-11T19:45:20.108Z,1016
2023-03-11T19:50:20.097Z,1016
2023-03-11T19:55:20.152Z,1016
2023-03-11T20:00:20.118Z,1016.1
2023-03-11T20:05:20.153Z,1016
2023-03-11T20:10:20.107Z,1016.1
2023-03-11T20:15:20.173Z,1016.2
2023-03-11T20:20:20.127Z,1016.1
2023-03-11T20:25:20.105Z,1016.1
2023-03-11T20:30:20.158Z,1016.1
2023-03-11T20:35:20.158Z,1016.2
2023-03-11T20:40:20.215Z,1016.1
2023-03-11T20:45:20.092Z,1016
2023-03-11T20:50:20.198Z,1016.2
2023-03-11T20:55:20.216Z,1016.3
2023-03-11T21:00:20.112Z,1016.4
2023-03-11T21:05:20.125Z,1016.3
2023-03-11T21:10:20.092Z,1016.4
2023-03-11T21:15:20.150Z,1016.4
2023-03-11T21:20:20.209Z,1016.4
2023-03-11T21:25:20.118Z,1016.5
2023-03-11T21:30:20.115Z,1016.5
2023-03-11T21:35:20.176Z,1016.4
2023-03-11T21:40:20.206Z,1016.5
2023-03-11T21:45:20.252Z,1016.4
2023-03-11T21:50:20.099Z,1016.4
2023-03-11T21:55:20.120Z,1016.4
2023-03-11T22:00:20.194Z,1016.6
2023-03-11T22:05:20.132Z,1016.6
2023-03-11T22:10:20.181Z,1016.6
2023-03-11T22:15:20.139Z,1016.6
2023-03-11T22:20:20.241Z,1016.6
2023-03-11T22:25:20.082Z,1016.6
2023-03-11T22:30:20.087Z,1016.6
2023-03-11T22:35:20.086Z,1016.6
2023-03-11T22:40:20.399Z,1016.5
2023-03-11T22:45:20.100Z,1016.6
2023-03-11T22:50:20.111Z,1016.6
2023-03-11T22:55:20.109Z,1016.7
2023-03-11T23:00:20.105Z,1016.8
2023-03-11T23:05:20.135Z,1016.8
2023-03-11T23:10:21.300Z,1016.8
2023-03-11T23:15:20.101Z,1016.8
2023-03-11T23:20:20.094Z,1016.8
2023-03-11T23:25:20.103Z,1016.8
2023-03-11T23:30:20.093Z,1017.1
2023-03-11T23:35:20.108Z,1017.1
2023-03-11T23:40:20.133Z,1016.9
2023-03-11T23:45:20.098Z,1017
2023-03-11T23:50:20.108Z,1017.1
2023-03-11T23:55:20.098Z,1017.2
